Time;durP1;ratioP1;P1;durP2;ratioP2;P2;SDS_P1;SDS_P2;PMS_P1;PMS_P2;Temp;Humidity;BMP_temperature;BMP_pressure;BME280_temperature;BME280_humidity;BME280_pressure;Samples;Min_cycle;Max_cycle;Signal;HPM_P1;HPM_P2
2021/05/26 04:21:37;;;;;;;0.03;0.03;;;;;;;;;;6270303;22;20035;-89
2021/05/26 04:24:11;;;;;;;0.20;0.17;;;;;;;;;;6304244;22;20035;-89
2021/05/26 04:26:38;;;;;;;0.00;0.00;;;;;;;;;;6273954;22;20008;-88
2021/05/26 04:29:07;;;;;;;0.20;0.20;;;;;;;;;;6234533;22;20011;-89
2021/05/26 04:31:33;;;;;;;0.00;0.00;;;;;;;;;;6218322;22;20020;-91
2021/05/26 04:33:59;;;;;;;0.52;0.52;;;;;;;;;;6241572;22;20008;-91
2021/05/26 04:36:26;;;;;;;0.50;0.50;;;;;;;;;;6240101;22;20500;-90
2021/05/26 04:38:52;;;;;;;0.20;0.10;;;;;;;;;;6240725;22;20077;-90
2021/05/26 04:41:21;;;;;;;0.70;0.52;;;;;;;;;;6241058;22;20015;-90
2021/05/26 04:43:47;;;;;;;0.00;0.00;;;;;;;;;;6214876;22;20015;-90
2021/05/26 04:46:18;;;;;;;0.10;0.10;;;;;;;;;;6216098;22;20043;-90
2021/05/26 04:48:44;;;;;;;0.00;0.00;;;;;;;;;;6237916;22;20016;-90
2021/05/26 04:51:11;;;;;;;23.33;0.77;;;;;;;;;;6242370;22;20015;-90
2021/05/26 04:53:39;;;;;;;0.68;0.28;;;;;;;;;;6240901;22;20012;-91
2021/05/26 04:56:11;;;;;;;29.10;0.95;;;;;;;;;;6212618;22;20026;-90
2021/05/26 04:58:40;;;;;;;0.47;0.47;;;;;;;;;;6239475;22;20012;-90
2021/05/26 05:01:09;;;;;;;0.55;0.55;;;;;;;;;;6215031;22;20037;-90
2021/05/26 05:03:38;;;;;;;0.10;0.10;;;;;;;;;;6239202;22;20015;-90
2021/05/26 05:06:20;;;;;;;;;;;;;;;;;;;;;
2021/05/26 05:08:50;;;;;;;0.10;0.10;;;;;;;;;;6243549;22;20018;-90
2021/05/26 05:11:30;;;;;;;0.25;0.05;;;;;;;;;;6240560;22;20007;-89
2021/05/26 05:14:03;;;;;;;0.00;0.00;;;;;;;;;;6239434;22;20008;-90
2021/05/26 05:22:21;;;;;;;0.00;0.00;;;;;;;;;;6259274;22;20015;-89
2021/05/26 05:24:48;;;;;;;0.03;0.00;;;;;;;;;;6235568;22;20038;-88
2021/05/26 05:27:17;;;;;;;0.50;0.47;;;;;;;;;;6234815;22;20038;-90
2021/05/26 05:29:43;;;;;;;1.45;1.08;;;;;;;;;;6236295;22;20014;-90
2021/05/26 05:32:10;;;;;;;0.00;0.00;;;;;;;;;;6239132;22;20105;-89
2021/05/26 05:34:37;;;;;;;0.20;0.20;;;;;;;;;;6237574;22;20087;-91
2021/05/26 05:37:17;;;;;;;0.65;0.17;;;;;;;;;;6235100;22;20035;-90
2021/05/26 05:39:58;;;;;;;0.25;0.17;;;;;;;;;;6265064;22;20003;-91
2021/05/26 05:42:26;;;;;;;0.00;0.00;;;;;;;;;;6235501;22;20441;-90
2021/05/26 05:44:55;;;;;;;0.05;0.05;;;;;;;;;;6238934;22;20008;-89
2021/05/26 05:47:36;;;;;;;0.10;0.10;;;;;;;;;;6238530;22;20076;-89
2021/05/26 05:50:14;;;;;;;0.05;0.05;;;;;;;;;;6240720;22;20004;-90
2021/05/26 05:52:41;;;;;;;0.05;0.05;;;;;;;;;;6241593;22;20424;-90
2021/05/26 05:55:10;;;;;;;0.90;0.65;;;;;;;;;;6213036;22;20020;-90
2021/05/26 05:57:40;;;;;;;0.30;0.20;;;;;;;;;;6241046;22;20031;-90
2021/05/26 06:00:29;;;;;;;0.00;0.00;;;;;;;;;;6240725;22;20094;-90
2021/05/26 06:03:14;;;;;;;0.10;0.05;;;;;;;;;;6267496;22;20034;-90
2021/05/26 06:06:16;;;;;;;0.35;0.30;;;;;;;;;;6241207;22;20008;-90
2021/05/26 06:08:57;;;;;;;0.00;0.00;;;;;;;;;;6242031;22;20027;-90
2021/05/26 06:11:34;;;;;;;;;;;;;;;;;;;;;
2021/05/26 06:14:08;;;;;;;1.88;0.45;;;;;;;;;;6267895;22;20508;-89
2021/05/26 06:16:54;;;;;;;0.17;0.10;;;;;;;;;;6241357;22;20020;-88
2021/05/26 06:19:30;;;;;;;0.20;0.13;;;;;;;;;;6217450;22;20014;-90
2021/05/26 06:22:06;;;;;;;0.85;0.10;;;;;;;;;;6234396;22;20031;-90
2021/05/26 06:24:36;;;;;;;1.25;0.13;;;;;;;;;;6237823;22;20015;-90
2021/05/26 06:27:05;;;;;;;3.97;1.23;;;;;;;;;;6237947;22;20008;-90
2021/05/26 06:29:44;;;;;;;1.15;0.65;;;;;;;;;;6239602;22;20012;-90
2021/05/26 06:35:54;;;;;;;0.10;0.10;;;;;;;;;;6248478;22;20015;-91
2021/05/26 06:38:44;;;;;;;;;;;;;;;;;;;;;
2021/05/26 06:41:47;;;;;;;0.15;0.05;;;;;;;;;;6263169;22;20473;-91
2021/05/26 06:47:09;;;;;;;0.00;0.00;;;;;;;;;;6229208;22;20012;-91
2021/05/26 06:49:38;;;;;;;0.00;0.00;;;;;;;;;;6211492;22;20567;-91
2021/05/26 06:52:10;;;;;;;0.00;0.00;;;;;;;;;;6209879;22;20020;-92
2021/05/26 06:55:09;;;;;;;0.00;0.00;;;;;;;;;;6236617;22;20015;-91
2021/05/26 06:57:59;;;;;;;0.00;0.00;;;;;;;;;;6236471;22;20627;-91
2021/05/26 07:00:52;;;;;;;0.30;0.20;;;;;;;;;;6167076;22;20060;-91
2021/05/26 07:03:23;;;;;;;0.20;0.20;;;;;;;;;;6219087;22;20015;-91
2021/05/26 07:06:16;;;;;;;0.35;0.35;;;;;;;;;;6237157;22;20007;-92
2021/05/26 07:09:27;;;;;;;;;;;;;;;;;;;;;
2021/05/26 07:20:59;;;;;;;0.10;0.10;;;;;;;;;;6086537;22;20519;-83
2021/05/26 07:23:37;;;;;;;;;;;;;;;;;;;;;
2021/05/26 07:26:25;;;;;;;;;;;;;;;;;;;;;
2021/05/26 07:29:10;;;;;;;0.17;0.17;;;;;;;;;;6214313;23;20497;-92
2021/05/26 07:31:59;;;;;;;;;;;;;;;;;;;;;
2021/05/26 07:34:48;;;;;;;0.13;0.08;;;;;;;;;;6236967;23;20016;-92
2021/05/26 07:37:50;;;;;;;0.00;0.00;;;;;;;;;;6207194;22;20020;-92
2021/05/26 07:43:28;;;;;;;0.68;0.38;;;;;;;;;;6172813;23;20023;-93
2021/05/26 07:46:27;;;;;;;;;;;;;;;;;;;;;
2021/05/26 07:49:21;;;;;;;1.73;0.85;;;;;;;;;;6211938;23;20016;-93
2021/05/26 07:55:15;;;;;;;0.35;0.35;;;;;;;;;;6229505;23;20016;-94
2021/05/26 07:58:07;;;;;;;1.05;0.30;;;;;;;;;;6208870;23;20016;-93
2021/05/26 08:04:02;;;;;;;0.10;0.10;;;;;;;;;;6162241;23;20013;-94
2021/05/26 08:06:36;;;;;;;0.63;0.47;;;;;;;;;;6126656;23;20340;-93
2021/05/26 08:22:10;;;;;;;0.10;0.08;;;;;;;;;;5972259;23;20016;-93
2021/05/26 08:24:40;;;;;;;0.00;0.00;;;;;;;;;;6004479;23;20022;-92
2021/05/26 08:27:17;;;;;;;0.32;0.13;;;;;;;;;;6088972;23;20006;-92
2021/05/26 08:29:59;;;;;;;0.13;0.03;;;;;;;;;;6137197;23;20109;-92
2021/05/26 08:32:29;;;;;;;0.00;0.00;;;;;;;;;;6239583;23;20418;-93
2021/05/26 08:35:28;;;;;;;;;;;;;;;;;;;;;
2021/05/26 08:37:58;;;;;;;0.38;0.15;;;;;;;;;;6249395;22;20127;-93
2021/05/26 08:40:26;;;;;;;0.15;0.05;;;;;;;;;;6228416;23;20012;-93
2021/05/26 08:53:11;;;;;;;0.60;0.20;;;;;;;;;;6251237;23;20468;-94
2021/05/26 08:59:18;;;;;;;0.32;0.20;;;;;;;;;;6259224;23;20027;-94
2021/05/26 09:02:25;;;;;;;;;;;;;;;;;;;;;
2021/05/26 09:08:38;;;;;;;;;;;;;;;;;;;;;
2021/05/26 09:18:03;;;;;;;;;;;;;;;;;;;;;
2021/05/26 09:20:32;;;;;;;0.10;0.10;;;;;;;;;;6134801;23;20037;-94
2021/05/26 09:23:23;;;;;;;0.20;0.20;;;;;;;;;;6106480;23;20022;-94
2021/05/26 09:29:06;;;;;;;0.10;0.00;;;;;;;;;;6223465;23;20529;-94
2021/05/26 09:31:45;;;;;;;0.43;0.00;;;;;;;;;;6242397;23;20004;-94
2021/05/26 09:38:03;;;;;;;;;;;;;;;;;;;;;
2021/05/26 09:40:51;;;;;;;0.60;0.30;;;;;;;;;;6270646;22;20062;-95
2021/05/26 09:43:52;;;;;;;;;;;;;;;;;;;;;
2021/05/26 09:46:33;;;;;;;;;;;;;;;;;;;;;
2021/05/26 09:52:03;;;;;;;0.00;0.00;;;;;;;;;;6247441;22;20326;-95
2021/05/26 09:55:31;;;;;;;0.00;0.00;;;;;;;;;;6287492;22;20066;-95
2021/05/26 10:08:11;;;;;;;;;;;;;;;;;;;;;
2021/05/26 10:13:56;;;;;;;0.20;0.20;;;;;;;;;;6288808;22;20053;-94
2021/05/26 10:16:36;;;;;;;0.00;0.00;;;;;;;;;;6255507;22;20035;-94
2021/05/26 10:19:04;;;;;;;0.10;0.10;;;;;;;;;;6250738;22;20011;-93
2021/05/26 10:21:34;;;;;;;0.00;0.00;;;;;;;;;;6253331;22;20336;-93
2021/05/26 10:24:05;;;;;;;0.10;0.10;;;;;;;;;;6250713;22;20432;-93
2021/05/26 10:26:50;;;;;;;0.00;0.00;;;;;;;;;;6244601;22;20034;-91
2021/05/26 10:29:33;;;;;;;0.10;0.10;;;;;;;;;;6245311;22;20157;-92
2021/05/26 10:32:07;;;;;;;0.60;0.60;;;;;;;;;;6240222;22;20015;-93
2021/05/26 10:34:43;;;;;;;0.00;0.00;;;;;;;;;;6217010;22;20523;-92
2021/05/26 10:37:10;;;;;;;0.00;0.00;;;;;;;;;;6244829;22;20018;-94
2021/05/26 10:39:46;;;;;;;0.00;0.00;;;;;;;;;;6234707;23;20016;-91
2021/05/26 10:42:31;;;;;;;0.00;0.00;;;;;;;;;;6239709;23;20034;-91
2021/05/26 10:45:07;;;;;;;0.00;0.00;;;;;;;;;;6239626;23;20013;-91
2021/05/26 10:47:37;;;;;;;0.10;0.00;;;;;;;;;;6236820;23;20342;-91
2021/05/26 10:50:04;;;;;;;0.10;0.10;;;;;;;;;;6236063;22;20008;-91
2021/05/26 10:52:52;;;;;;;0.00;0.00;;;;;;;;;;6241156;23;20465;-92
2021/05/26 10:55:38;;;;;;;0.10;0.10;;;;;;;;;;6194235;23;20018;-92
2021/05/26 10:58:16;;;;;;;0.00;0.00;;;;;;;;;;6236566;23;20019;-92
2021/05/26 11:00:45;;;;;;;0.22;0.22;;;;;;;;;;6238962;23;20018;-92
2021/05/26 11:03:43;;;;;;;0.20;0.00;;;;;;;;;;6240893;23;20008;-92
2021/05/26 11:06:10;;;;;;;0.13;0.00;;;;;;;;;;6192555;23;20020;-92
2021/05/26 11:08:47;;;;;;;;;;;;;;;;;;;;;
2021/05/26 11:14:13;;;;;;;0.52;0.32;;;;;;;;;;6243592;23;20016;-92
2021/05/26 11:16:47;;;;;;;0.40;0.10;;;;;;;;;;6240599;23;20008;-92
2021/05/26 11:19:16;;;;;;;0.52;0.15;;;;;;;;;;6240754;23;20004;-92
2021/05/26 11:22:00;;;;;;;0.00;0.00;;;;;;;;;;6239252;22;20039;-92
2021/05/26 11:25:00;;;;;;;0.00;0.00;;;;;;;;;;6244034;23;20080;-96
2021/05/26 11:30:31;;;;;;;0.00;0.00;;;;;;;;;;6262485;23;20041;-96
2021/05/26 11:33:16;;;;;;;0.00;0.00;;;;;;;;;;6215615;23;20004;-96
2021/05/26 11:36:15;;;;;;;;;;;;;;;;;;;;;
2021/05/26 11:55:13;;;;;;;0.38;0.10;;;;;;;;;;6322536;22;20013;-95
2021/05/26 11:57:46;;;;;;;0.20;0.20;;;;;;;;;;6307039;22;20011;-94
2021/05/26 12:00:48;;;;;;;0.00;0.00;;;;;;;;;;6278928;22;20432;-95
2021/05/26 12:03:18;;;;;;;0.00;0.00;;;;;;;;;;6189555;23;20013;-95
2021/05/26 12:05:59;;;;;;;0.00;0.00;;;;;;;;;;6243677;22;20094;-95
2021/05/26 12:08:27;;;;;;;0.10;0.00;;;;;;;;;;6256711;22;20015;-93
2021/05/26 12:11:14;;;;;;;0.00;0.00;;;;;;;;;;6303760;22;20376;-92
2021/05/26 12:13:45;;;;;;;0.00;0.00;;;;;;;;;;6302715;22;20452;-91
2021/05/26 12:16:13;;;;;;;0.70;0.30;;;;;;;;;;6302368;22;20011;-91
2021/05/26 12:18:43;;;;;;;3.83;0.08;;;;;;;;;;6300333;22;20012;-91
2021/05/26 12:21:13;;;;;;;0.00;0.00;;;;;;;;;;6301947;22;20017;-91
2021/05/26 12:23:40;;;;;;;0.00;0.00;;;;;;;;;;6302276;22;20015;-89
2021/05/26 12:26:30;;;;;;;0.00;0.00;;;;;;;;;;6299938;22;20348;-90
2021/05/26 12:29:02;;;;;;;0.20;0.10;;;;;;;;;;6297786;22;19999;-90
2021/05/26 12:31:32;;;;;;;0.10;0.10;;;;;;;;;;6302084;22;20007;-90
2021/05/26 12:33:58;;;;;;;0.00;0.00;;;;;;;;;;6300466;22;20003;-90
2021/05/26 12:36:27;;;;;;;0.22;0.00;;;;;;;;;;6301134;22;20011;-90
2021/05/26 12:39:11;;;;;;;0.00;0.00;;;;;;;;;;6270147;22;20073;-90
2021/05/26 12:41:38;;;;;;;0.00;0.00;;;;;;;;;;6246074;22;20012;-90
2021/05/26 12:44:08;;;;;;;0.00;0.00;;;;;;;;;;6242010;22;20016;-90
2021/05/26 12:46:35;;;;;;;0.00;0.00;;;;;;;;;;6245388;22;20011;-89
2021/05/26 12:49:02;;;;;;;0.00;0.00;;;;;;;;;;6243663;22;20011;-90
2021/05/26 12:51:28;;;;;;;0.00;0.00;;;;;;;;;;6219807;22;20065;-89
2021/05/26 12:53:54;;;;;;;;;;;;;;;;;;6244852;22;20455;-90
2021/05/26 12:56:26;;;;;;;0.00;0.00;;;;;;;;;;6244821;22;19968;-89
2021/05/26 12:58:52;;;;;;;0.00;0.00;;;;;;;;;;6242634;22;20029;-90
2021/05/26 13:01:18;;;;;;;0.00;0.00;;;;;;;;;;6243815;22;20008;-90
2021/05/26 13:03:45;;;;;;;;;;;;;;;;;;6243069;22;20022;-90
2021/05/26 13:06:36;;;;;;;0.52;0.32;;;;;;;;;;6240348;22;19989;-89
2021/05/26 13:09:06;;;;;;;0.00;0.00;;;;;;;;;;6239028;22;20065;-90
2021/05/26 13:11:46;;;;;;;0.00;0.00;;;;;;;;;;6238761;22;20022;-89
2021/05/26 13:14:13;;;;;;;0.10;0.10;;;;;;;;;;6239288;22;20500;-90
2021/05/26 13:16:42;;;;;;;0.00;0.00;;;;;;;;;;6239430;22;20015;-90
2021/05/26 13:19:08;;;;;;;0.00;0.00;;;;;;;;;;6238608;22;20016;-92
2021/05/26 13:21:43;;;;;;;0.08;0.08;;;;;;;;;;6237852;22;20440;-92
2021/05/26 13:24:10;;;;;;;0.30;0.30;;;;;;;;;;6243852;22;20011;-92
2021/05/26 13:26:36;;;;;;;0.00;0.00;;;;;;;;;;6241106;22;20026;-91
2021/05/26 13:29:02;;;;;;;0.00;0.00;;;;;;;;;;6237989;22;20429;-92
2021/05/26 13:31:31;;;;;;;0.00;0.00;;;;;;;;;;6243214;22;20007;-91
2021/05/26 13:33:57;;;;;;;0.00;0.00;;;;;;;;;;6244285;22;20004;-91
2021/05/26 13:36:28;;;;;;;0.25;0.10;;;;;;;;;;6245903;22;20061;-92
2021/05/26 13:38:55;;;;;;;0.08;0.08;;;;;;;;;;6195895;23;20023;-94
2021/05/26 13:41:22;;;;;;;0.30;0.08;;;;;;;;;;6215965;23;20319;-93
2021/05/26 13:43:50;;;;;;;0.00;0.00;;;;;;;;;;6214700;23;20028;-94
2021/05/26 13:46:17;;;;;;;0.00;0.00;;;;;;;;;;6229837;23;20031;-93
2021/05/26 13:48:44;;;;;;;0.10;0.00;;;;;;;;;;6224913;23;20008;-96
2021/05/26 13:51:15;;;;;;;0.95;0.80;;;;;;;;;;6219431;23;20012;-95
2021/05/26 13:53:43;;;;;;;0.85;0.30;;;;;;;;;;6218893;23;20010;-93
2021/05/26 13:56:10;;;;;;;0.00;0.00;;;;;;;;;;6215228;23;20012;-93
2021/05/26 13:58:40;;;;;;;0.00;0.00;;;;;;;;;;6217697;23;20410;-93
2021/05/26 14:01:07;;;;;;;0.10;0.00;;;;;;;;;;6215776;23;20035;-94
2021/05/26 14:03:35;;;;;;;0.00;0.00;;;;;;;;;;6216629;23;20016;-95
2021/05/26 14:06:02;;;;;;;1.20;0.20;;;;;;;;;;6217324;23;20015;-92
2021/05/26 14:08:29;;;;;;;0.10;0.10;;;;;;;;;;6217536;23;20444;-94
2021/05/26 14:10:57;;;;;;;;;;;;;;;;;;6219989;23;20004;-95
2021/05/26 14:13:38;;;;;;;0.00;0.00;;;;;;;;;;6222063;23;19930;-94
2021/05/26 14:16:06;;;;;;;0.10;0.00;;;;;;;;;;6200933;23;20012;-95
2021/05/26 14:18:34;;;;;;;0.00;0.00;;;;;;;;;;6215895;23;20016;-94
2021/05/26 14:21:00;;;;;;;0.00;0.00;;;;;;;;;;6217736;23;20083;-93
2021/05/26 14:23:28;;;;;;;0.00;0.00;;;;;;;;;;6217444;23;20016;-93
2021/05/26 14:25:57;;;;;;;0.08;0.00;;;;;;;;;;6214928;23;20036;-93
2021/05/26 14:28:24;;;;;;;0.00;0.00;;;;;;;;;;6193468;23;20012;-93
2021/05/26 14:30:53;;;;;;;0.00;0.00;;;;;;;;;;6213371;23;20008;-93
2021/05/26 14:33:20;;;;;;;0.25;0.05;;;;;;;;;;6213506;23;20083;-92
2021/05/26 14:35:47;;;;;;;0.00;0.00;;;;;;;;;;6216584;23;20012;-93
2021/05/26 14:38:30;;;;;;;0.00;0.00;;;;;;;;;;6236056;22;20019;-93
2021/05/26 14:40:57;;;;;;;0.00;0.00;;;;;;;;;;6248039;22;20027;-92
2021/05/26 14:43:24;;;;;;;0.00;0.00;;;;;;;;;;6249472;22;20012;-92
2021/05/26 14:45:51;;;;;;;0.00;0.00;;;;;;;;;;6248697;22;20012;-92
2021/05/26 14:48:21;;;;;;;;;;;;;;;;;;6250819;22;20066;-94
2021/05/26 14:50:48;;;;;;;0.00;0.00;;;;;;;;;;6254822;22;19926;-93
2021/05/26 14:53:16;;;;;;;0.22;0.20;;;;;;;;;;6255791;22;20053;-93
2021/05/26 14:55:43;;;;;;;2.53;1.08;;;;;;;;;;6253304;22;20019;-93
2021/05/26 14:58:09;;;;;;;;;;;;;;;;;;6251776;22;20015;-91
2021/05/26 15:00:37;;;;;;;0.00;0.00;;;;;;;;;;6247799;22;20239;-91
2021/05/26 15:03:04;;;;;;;0.00;0.00;;;;;;;;;;6247772;22;20015;-90
2021/05/26 15:05:31;;;;;;;;;;;;;;;;;;6223431;22;20066;-90
2021/05/26 15:07:58;;;;;;;0.00;0.00;;;;;;;;;;6246847;22;19982;-89
2021/05/26 15:10:24;;;;;;;0.13;0.13;;;;;;;;;;6247517;22;20008;-92
2021/05/26 15:12:51;;;;;;;0.20;0.20;;;;;;;;;;6247019;22;20337;-91
2021/05/26 15:15:17;;;;;;;0.00;0.00;;;;;;;;;;6248212;22;20253;-91
2021/05/26 15:17:44;;;;;;;0.00;0.00;;;;;;;;;;6249149;22;20008;-92
2021/05/26 15:20:10;;;;;;;0.00;0.00;;;;;;;;;;6253788;22;20015;-91
2021/05/26 15:22:38;;;;;;;0.17;0.10;;;;;;;;;;6249360;22;20185;-94
2021/05/26 15:25:05;;;;;;;0.00;0.00;;;;;;;;;;6247133;22;20020;-93
2021/05/26 15:27:33;;;;;;;0.30;0.13;;;;;;;;;;6249006;22;20007;-95
2021/05/26 15:30:00;;;;;;;0.00;0.00;;;;;;;;;;6228766;22;20012;-92
2021/05/26 15:32:28;;;;;;;;;;;;;;;;;;6253630;22;20030;-93
2021/05/26 15:34:58;;;;;;;0.00;0.00;;;;;;;;;;6248109;22;19985;-92
2021/05/26 15:37:24;;;;;;;0.00;0.00;;;;;;;;;;6238427;22;20421;-93
2021/05/26 15:39:51;;;;;;;0.13;0.10;;;;;;;;;;6212177;23;20070;-93
2021/05/26 15:42:17;;;;;;;0.00;0.00;;;;;;;;;;6216142;23;20091;-92
2021/05/26 15:44:43;;;;;;;3.40;1.87;;;;;;;;;;6211835;23;20127;-95
2021/05/26 15:47:10;;;;;;;0.00;0.00;;;;;;;;;;6213102;23;20349;-91
2021/05/26 15:49:39;;;;;;;0.47;0.10;;;;;;;;;;6213914;23;20372;-92
2021/05/26 15:52:08;;;;;;;0.10;0.00;;;;;;;;;;6185659;23;20012;-92
2021/05/26 15:54:35;;;;;;;0.32;0.10;;;;;;;;;;6210987;23;20008;-91
2021/05/26 15:57:03;;;;;;;0.00;0.00;;;;;;;;;;6211447;23;20065;-91
2021/05/26 15:59:30;;;;;;;0.00;0.00;;;;;;;;;;6216125;23;20008;-91
2021/05/26 16:01:59;;;;;;;0.10;0.10;;;;;;;;;;6214556;23;20397;-91
2021/05/26 16:04:27;;;;;;;0.00;0.00;;;;;;;;;;6192851;23;20016;-91
2021/05/26 16:06:53;;;;;;;;;;;;;;;;;;6216776;23;20008;-91
2021/05/26 16:09:21;;;;;;;0.00;0.00;;;;;;;;;;6217205;23;19907;-90
2021/05/26 16:11:49;;;;;;;0.03;0.03;;;;;;;;;;6215668;23;20008;-90
2021/05/26 16:14:18;;;;;;;0.00;0.00;;;;;;;;;;6217429;23;20039;-90
2021/05/26 16:16:44;;;;;;;0.00;0.00;;;;;;;;;;6215610;23;20103;-90
2021/05/26 16:19:14;;;;;;;0.23;0.07;;;;;;;;;;6217045;23;20345;-90
2021/05/26 16:21:41;;;;;;;0.00;0.00;;;;;;;;;;6217283;23;20434;-90
2021/05/26 16:24:08;;;;;;;0.10;0.10;;;;;;;;;;6217713;23;20065;-91
2021/05/26 16:26:34;;;;;;;0.00;0.00;;;;;;;;;;6216406;23;20012;-90
2021/05/26 16:29:01;;;;;;;0.00;0.00;;;;;;;;;;6211094;23;20019;-91
2021/05/26 16:34:42;;;;;;;0.00;0.00;;;;;;;;;;6220311;23;20022;-91
2021/05/26 16:37:13;;;;;;;0.10;0.00;;;;;;;;;;6216953;23;20417;-92
2021/05/26 16:39:40;;;;;;;0.13;0.13;;;;;;;;;;6217525;23;20031;-93
2021/05/26 16:42:08;;;;;;;0.00;0.00;;;;;;;;;;6241568;23;20016;-93
2021/05/26 16:44:35;;;;;;;0.00;0.00;;;;;;;;;;6238890;23;20381;-92
2021/05/26 16:47:07;;;;;;;0.03;0.00;;;;;;;;;;6237816;23;20015;-91
2021/05/26 16:49:33;;;;;;;0.00;0.00;;;;;;;;;;6239632;23;20015;-92
2021/05/26 16:52:03;;;;;;;0.28;0.28;;;;;;;;;;6234811;23;20008;-92
2021/05/26 16:54:29;;;;;;;0.10;0.10;;;;;;;;;;6213511;23;20004;-93
2021/05/26 16:56:58;;;;;;;0.00;0.00;;;;;;;;;;6238376;23;20012;-90
2021/05/26 16:59:26;;;;;;;0.13;0.08;;;;;;;;;;6242598;23;20008;-95
2021/05/26 17:01:52;;;;;;;0.00;0.00;;;;;;;;;;6242208;23;20087;-94
2021/05/26 17:04:32;;;;;;;;;;;;;;;;;;;;;
2021/05/26 17:07:04;;;;;;;0.00;0.00;;;;;;;;;;6248775;23;20072;-95
2021/05/26 17:09:34;;;;;;;0.00;0.00;;;;;;;;;;6216647;23;20000;-96
2021/05/26 17:12:01;;;;;;;0.00;0.00;;;;;;;;;;6240913;23;20336;-94
2021/05/26 17:14:30;;;;;;;0.10;0.10;;;;;;;;;;6240334;23;20434;-92
2021/05/26 17:16:56;;;;;;;0.00;0.00;;;;;;;;;;6211926;23;20012;-94
2021/05/26 17:19:22;;;;;;;0.00;0.00;;;;;;;;;;6211553;23;20022;-91
2021/05/26 17:21:49;;;;;;;0.00;0.00;;;;;;;;;;6213600;23;20705;-93
2021/05/26 17:24:18;;;;;;;0.00;0.00;;;;;;;;;;6241500;23;20004;-93
2021/05/26 17:26:45;;;;;;;0.03;0.03;;;;;;;;;;6217771;23;20008;-96
2021/05/26 17:29:13;;;;;;;0.00;0.00;;;;;;;;;;6221515;23;20042;-95
2021/05/26 17:31:40;;;;;;;0.00;0.00;;;;;;;;;;6244556;23;20035;-93
2021/05/26 17:34:06;;;;;;;0.10;0.10;;;;;;;;;;6239409;23;20015;-94
2021/05/26 17:36:33;;;;;;;0.15;0.15;;;;;;;;;;6235928;23;20012;-93
2021/05/26 17:39:06;;;;;;;0.00;0.00;;;;;;;;;;6237942;22;20023;-94
2021/05/26 17:41:32;;;;;;;0.00;0.00;;;;;;;;;;6242859;22;20246;-93
2021/05/26 17:44:08;;;;;;;0.00;0.00;;;;;;;;;;6242409;22;20015;-91
2021/05/26 17:46:41;;;;;;;0.00;0.00;;;;;;;;;;6244137;22;20007;-91
2021/05/26 17:49:13;;;;;;;0.20;0.20;;;;;;;;;;6244645;22;20034;-93
2021/05/26 17:51:42;;;;;;;0.00;0.00;;;;;;;;;;6244748;22;20348;-92
2021/05/26 17:54:12;;;;;;;0.10;0.10;;;;;;;;;;6243867;22;20007;-93
2021/05/26 17:57:01;;;;;;;0.00;0.00;;;;;;;;;;6243140;22;20014;-93
2021/05/26 17:59:31;;;;;;;0.00;0.00;;;;;;;;;;6215435;22;20015;-93
2021/05/26 18:02:01;;;;;;;0.00;0.00;;;;;;;;;;6213226;22;20453;-92
2021/05/26 18:04:41;;;;;;;0.00;0.00;;;;;;;;;;6213585;22;20019;-94
2021/05/26 18:07:12;;;;;;;0.00;0.00;;;;;;;;;;6217529;22;20623;-95
2021/05/26 18:09:42;;;;;;;0.00;0.00;;;;;;;;;;6238042;22;20015;-92
2021/05/26 18:12:12;;;;;;;0.00;0.00;;;;;;;;;;6238406;22;20067;-91
2021/05/26 18:14:42;;;;;;;0.00;0.00;;;;;;;;;;6243166;22;20437;-91
2021/05/26 18:17:09;;;;;;;0.00;0.00;;;;;;;;;;6240609;22;20011;-92
2021/05/26 18:19:42;;;;;;;0.00;0.00;;;;;;;;;;6215476;22;20031;-92
2021/05/26 18:22:21;;;;;;;0.00;0.00;;;;;;;;;;6240469;22;20464;-91
2021/05/26 18:24:50;;;;;;;0.00;0.00;;;;;;;;;;6215029;22;20050;-91
2021/05/26 18:27:28;;;;;;;0.00;0.00;;;;;;;;;;6237517;22;20003;-92
2021/05/26 18:29:55;;;;;;;;;;;;;;;;;;6240664;22;20042;-91
2021/05/26 18:32:25;;;;;;;0.00;0.00;;;;;;;;;;6241417;22;19931;-92
2021/05/26 18:34:55;;;;;;;0.00;0.00;;;;;;;;;;6238848;22;20038;-92
2021/05/26 18:37:24;;;;;;;0.00;0.00;;;;;;;;;;6238572;22;20585;-92
2021/05/26 18:40:10;;;;;;;0.00;0.00;;;;;;;;;;6214197;22;20014;-91
2021/05/26 18:42:46;;;;;;;3.95;1.15;;;;;;;;;;6240909;22;20096;-91
2021/05/26 18:45:14;;;;;;;0.00;0.00;;;;;;;;;;6240593;22;20046;-92
2021/05/26 18:47:47;;;;;;;0.00;0.00;;;;;;;;;;6241923;22;20007;-92
2021/05/26 18:50:15;;;;;;;0.38;0.32;;;;;;;;;;6243016;22;20015;-91
2021/05/26 18:52:55;;;;;;;0.00;0.00;;;;;;;;;;6245959;22;20004;-92
2021/05/26 18:55:36;;;;;;;0.00;0.00;;;;;;;;;;6269639;22;20045;-94
2021/05/26 18:58:04;;;;;;;0.00;0.00;;;;;;;;;;6229699;22;20012;-92
2021/05/26 19:00:40;;;;;;;8.40;2.65;;;;;;;;;;6250446;22;20007;-92
2021/05/26 19:03:10;;;;;;;0.20;0.20;;;;;;;;;;6228176;22;20516;-92
2021/05/26 19:05:53;;;;;;;0.00;0.00;;;;;;;;;;6259419;22;20004;-91
2021/05/26 19:08:30;;;;;;;0.10;0.10;;;;;;;;;;6266260;22;20000;-91
2021/05/26 19:11:29;;;;;;;0.00;0.00;;;;;;;;;;6269586;22;20020;-92
2021/05/26 19:14:28;;;;;;;0.08;0.08;;;;;;;;;;6293956;22;19995;-92
2021/05/26 19:20:07;;;;;;;0.00;0.00;;;;;;;;;;6291719;22;20027;-93
2021/05/26 19:29:20;;;;;;;0.00;0.00;;;;;;;;;;6297474;22;20018;-91
2021/05/26 19:32:31;;;;;;;0.00;0.00;;;;;;;;;;6267842;22;20014;-91
2021/05/26 19:35:48;;;;;;;0.00;0.00;;;;;;;;;;6274199;22;20000;-92
2021/05/26 19:38:26;;;;;;;0.32;0.32;;;;;;;;;;6265680;22;20019;-91
2021/05/26 19:40:55;;;;;;;0.00;0.00;;;;;;;;;;6264010;22;20014;-92
2021/05/26 19:46:44;;;;;;;;;;;;;;;;;;;;;
2021/05/26 19:49:13;;;;;;;0.00;0.00;;;;;;;;;;6268893;22;20004;-92
2021/05/26 19:52:12;;;;;;;;;;;;;;;;;;;;;
2021/05/26 19:54:48;;;;;;;0.00;0.00;;;;;;;;;;6238412;22;20011;-92
2021/05/26 19:57:21;;;;;;;0.00;0.00;;;;;;;;;;6216646;22;20034;-92
2021/05/26 20:00:20;;;;;;;0.00;0.00;;;;;;;;;;6269255;22;20035;-92
2021/05/26 20:02:58;;;;;;;;;;;;;;;;;;6241478;22;20345;-92
2021/05/26 20:05:57;;;;;;;0.10;0.10;;;;;;;;;;6243650;22;19931;-92
2021/05/26 20:08:35;;;;;;;0.00;0.00;;;;;;;;;;6250859;22;20441;-92
2021/05/26 20:11:30;;;;;;;0.45;0.45;;;;;;;;;;6267833;22;20007;-93
2021/05/26 20:13:56;;;;;;;0.00;0.00;;;;;;;;;;6237513;22;20035;-91
2021/05/26 20:19:23;;;;;;;0.80;0.65;;;;;;;;;;6267426;22;19914;-91
2021/05/26 20:21:58;;;;;;;0.00;0.00;;;;;;;;;;6263884;22;20507;-92
2021/05/26 20:25:00;;;;;;;0.00;0.00;;;;;;;;;;6238088;22;20046;-92
2021/05/26 20:28:08;;;;;;;0.00;0.00;;;;;;;;;;6192264;22;20694;-92
2021/05/26 20:31:00;;;;;;;0.00;0.00;;;;;;;;;;6232316;23;20008;-93
2021/05/26 20:34:04;;;;;;;0.00;0.00;;;;;;;;;;6207146;23;20008;-92
2021/05/26 20:39:35;;;;;;;0.00;0.00;;;;;;;;;;6233552;23;20119;-92
2021/05/26 20:42:06;;;;;;;0.15;0.10;;;;;;;;;;6207831;23;20087;-92
2021/05/26 20:51:02;;;;;;;0.00;0.00;;;;;;;;;;6230086;23;20079;-91
2021/05/26 20:53:38;;;;;;;0.10;0.10;;;;;;;;;;6186326;23;20012;-91
2021/05/26 20:56:11;;;;;;;0.00;0.00;;;;;;;;;;6232999;23;20883;-91
2021/05/26 21:05:11;;;;;;;0.17;0.17;;;;;;;;;;6235689;23;20016;-93
2021/05/26 21:08:00;;;;;;;0.45;0.15;;;;;;;;;;6234361;23;20004;-91
2021/05/26 21:10:34;;;;;;;0.00;0.00;;;;;;;;;;6260559;22;20452;-91
2021/05/26 21:13:08;;;;;;;1.75;0.85;;;;;;;;;;6239924;22;20451;-90
2021/05/26 21:15:46;;;;;;;0.00;0.00;;;;;;;;;;6228567;23;20207;-89
2021/05/26 21:18:20;;;;;;;0.00;0.00;;;;;;;;;;6259277;22;20008;-90
2021/05/26 21:20:49;;;;;;;0.00;0.00;;;;;;;;;;6260114;22;20035;-89
2021/05/26 21:23:15;;;;;;;0.00;0.00;;;;;;;;;;6285112;22;20091;-89
2021/05/26 21:26:09;;;;;;;0.13;0.13;;;;;;;;;;6285724;22;20015;-90
2021/05/26 21:28:40;;;;;;;0.00;0.00;;;;;;;;;;6267780;22;20059;-91
2021/05/26 21:31:13;;;;;;;0.00;0.00;;;;;;;;;;6291002;22;20449;-89
2021/05/26 21:33:42;;;;;;;0.75;0.75;;;;;;;;;;6291848;22;20067;-90
2021/05/26 21:36:12;;;;;;;0.00;0.00;;;;;;;;;;6293139;22;20012;-91
2021/05/26 21:39:16;;;;;;;0.00;0.00;;;;;;;;;;6294821;22;20015;-91
2021/05/26 21:41:58;;;;;;;0.00;0.00;;;;;;;;;;6230484;22;20016;-89
2021/05/26 21:50:21;;;;;;;0.38;0.15;;;;;;;;;;6295904;22;20055;-90
2021/05/26 21:52:49;;;;;;;0.00;0.00;;;;;;;;;;6271575;22;20031;-91
2021/05/26 21:55:18;;;;;;;0.00;0.00;;;;;;;;;;6270104;22;20000;-89
2021/05/26 21:57:48;;;;;;;0.00;0.00;;;;;;;;;;6266701;22;20007;-91
2021/05/26 22:06:42;;;;;;;0.05;0.05;;;;;;;;;;6299175;22;20049;-90
2021/05/26 22:12:30;;;;;;;0.00;0.00;;;;;;;;;;6300587;22;20022;-90
2021/05/26 22:15:00;;;;;;;0.00;0.00;;;;;;;;;;6274736;22;19992;-91
2021/05/26 22:17:27;;;;;;;0.00;0.00;;;;;;;;;;6267117;22;19991;-91
2021/05/26 22:19:57;;;;;;;0.00;0.00;;;;;;;;;;6272859;22;20007;-90
2021/05/26 22:22:24;;;;;;;0.80;0.80;;;;;;;;;;6298041;22;19987;-91
2021/05/26 22:25:12;;;;;;;0.00;0.00;;;;;;;;;;6299076;22;19991;-91
2021/05/26 22:27:53;;;;;;;1.33;0.52;;;;;;;;;;6273370;22;20086;-90
2021/05/26 22:30:28;;;;;;;0.00;0.00;;;;;;;;;;6272009;22;20003;-90
2021/05/26 22:33:21;;;;;;;0.05;0.03;;;;;;;;;;6272486;22;20003;-90
2021/05/26 22:35:51;;;;;;;0.00;0.00;;;;;;;;;;6274048;22;20046;-91
2021/05/26 22:38:18;;;;;;;0.00;0.00;;;;;;;;;;6272550;22;20024;-90
2021/05/26 22:40:46;;;;;;;0.00;0.00;;;;;;;;;;6272797;22;20014;-90
2021/05/26 22:43:13;;;;;;;0.00;0.00;;;;;;;;;;6270490;22;20012;-91
2021/05/26 22:46:09;;;;;;;0.10;0.10;;;;;;;;;;6268209;22;20016;-92
2021/05/26 22:48:44;;;;;;;0.00;0.00;;;;;;;;;;6292346;22;20026;-92
2021/05/26 22:51:22;;;;;;;0.00;0.00;;;;;;;;;;6296352;22;20000;-91
2021/05/26 22:53:50;;;;;;;0.00;0.00;;;;;;;;;;6271941;22;19992;-90